This is the latest recevied weather packets stored in our database for station/object KI4MRC. If no packets are shown the sender has not sent any weather packets the latest 10 day(s).
| Time | Temp. | Humidity | Pressure | Rain* | Wind** | Luminosity | Snow |
|---|---|---|---|---|---|---|---|
| 1777667172 | 32.78° C | 41% | 1010.1 hPa | 0 mm | - | 104 W/m² | - |
| 1777666869 | 32.78° C | 41% | 1010 hPa | 0 mm | - | 63 W/m² | - |
| 1777666566 | 32.78° C | 40% | 1010.1 hPa | 0 mm | - | 76 W/m² | - |
| 1777666262 | 32.78° C | 44% | 1010.1 hPa | 0 mm | - | 58 W/m² | - |
| 1777665959 | 32.22° C | 43% | 1010.2 hPa | 0 mm | - | 57 W/m² | - |
| 1777665657 | 32.78° C | 44% | 1010.5 hPa | 0 mm | - | 102 W/m² | - |
| 1777665354 | 32.78° C | 40% | 1010.6 hPa | 0 mm | - | 160 W/m² | - |
| 1777664745 | 32.22° C | 42% | 1010.7 hPa | 0 mm | - | 66 W/m² | - |
| 1777664441 | 31.67° C | 45% | 1011 hPa | 0 mm | - | 64 W/m² | - |
| 1777664139 | 32.22° C | 45% | 1010.9 hPa | 0 mm | - | 74 W/m² | - |
| 1777663838 | 32.78° C | 43% | 1011 hPa | 0 mm | - | 84 W/m² | - |
| 1777663232 | 32.78° C | 45% | 1011.2 hPa | 0 mm | - | 134 W/m² | - |
| 1777662928 | 32.78° C | 44% | 1011.3 hPa | 0 mm | - | 188 W/m² | - |
| 1777662626 | 32.78° C | 43% | 1011.5 hPa | 0 mm | - | 187 W/m² | - |
| 1777662321 | 32.78° C | 44% | 1011.6 hPa | 0 mm | - | 706 W/m² | - |
| 1777661713 | 32.78° C | 49% | 1011.5 hPa | 0 mm | - | 904 W/m² | - |
| 1777660498 | 32.78° C | 47% | 1011.9 hPa | 0 mm | - | 951 W/m² | - |
| 1777660194 | 32.22° C | 49% | 1011.9 hPa | 0 mm | - | 959 W/m² | - |
| 1777659285 | 31.67° C | 51% | 1012 hPa | 0 mm | - | 1013 W/m² | - |
| 1777658982 | 32.22° C | 51% | 1012 hPa | 0 mm | - | 309 W/m² | - |
| 1777653524 | 31.11° C | 53% | 1012.8 hPa | 0 mm | - | 1048 W/m² | - |
| 1777653221 | 30.56° C | 55% | 1012.8 hPa | 0 mm | - | 1007 W/m² | - |
| 1777652918 | 31.11° C | 50% | 1012.7 hPa | 0 mm | - | 995 W/m² | - |
| 1777652614 | 31.11° C | 52% | 1012.9 hPa | 0 mm | - | 985 W/m² | - |
| 1777652311 | 31.11° C | 54% | 1013 hPa | 0 mm | - | 979 W/m² | - |
* Rain latest hour (hover to see other rain measurements)
** Current wind speed in m/s (hover to see current wind gust speed)